Francisco A. Berra, Argentina
Current Conditions -  °F | °C
As of 8:00 PM on Thursday 18 Dec 2014 (Local Time) from SAEZ Reporting Station
Few Clouds Few Clouds  
Wind Chill: 30°   Ceiling: Unl
Heat Index: 30°   Visibility: 6mi
Dew Point: 13°   Wind: 8mph
Humidity: 35%   Direction: 350°N
Pressure: 29.74"   Gusts: NA
Location:  35.41°S, 58.82°W
Report Text: SAEZ 182300Z 35007KT 300V020 9999 FEW060TCU 30/13 Q1007
Loading
Personal Weather Stations






























Interactive Weather Map New forecast layout! Learn more

10-Day Weather Forecast

Advertisements
Track Severe Weather on mobile